Main page
METAR-TAF:

METAR-TAF

Airports :

Funchal, Madeira, Portugal

Madeira Airport

latitude: 32-41-52N, longitude: 016-46-28W, elevation: 59 m

Current weather observation

The report was made 36 minutes ago, at 05:30 UTC
Wind 6 kt from the North/Northwest
Temperature 19°C
Humidity 78%
Pressure 1018 hPa
Visibility 10 km or more
Few clouds at a height of 1600 ft

METAR: LPMA 240530Z 33006KT 9999 FEW016 19/15 Q1018

Time: 07:06 (06:06 UTC)

Forecast

The report was made 1 hour and 6 minutes ago, at 05:00 UTC
Forecast valid from 24 at 06 UTC to 25 at 06 UTC
Wind 5 kt from the North/Northwest
Visibility 10 km or more
Scattered clouds at a height of 1500 ft
Scattered clouds at a height of 3000 ft
Becoming
from 24 at 10 UTC to 24 at 13 UTC
Wind 10 kt from the South/Southwest
Becoming
from 24 at 18 UTC to 24 at 21 UTC
Wind 5 kt from variable directions

TAF: LPMA 240500Z 2406/2506 34005KT 9999 SCT015 SCT030 BECMG 2410/2413 20010KT BECMG 2418/2421 VRB05KT

Weather observations and forecasts of more than 4000 airports (METAR and TAF reports).

The available stations are represented by yellow and red dots on the map.

Hover mouse over dot to see the name of the station.

Then click to see weather observations and forecasts.

To change the map : click on the green buttons with a black cross to zoom in, on the green button with a dash to zoom out, or on the green arrows for adjacent maps.


METAR-TAF: